createdAt,value
2018-11-04T00:02:36.949Z,24.00
2018-11-04T00:05:05.196Z,23.73
2018-11-04T00:07:33.393Z,20.80
2018-11-04T00:10:01.633Z,25.87
2018-11-04T00:12:29.833Z,22.60
2018-11-04T00:14:58.048Z,24.27
2018-11-04T00:17:25.933Z,21.13
2018-11-04T00:19:54.092Z,24.33
2018-11-04T00:22:22.312Z,20.80
2018-11-04T00:24:50.493Z,27.00
2018-11-04T00:27:18.700Z,23.30
2018-11-04T00:29:46.896Z,23.23
2018-11-04T00:32:14.997Z,22.10
2018-11-04T00:34:43.329Z,23.30
2018-11-04T00:37:11.393Z,19.77
2018-11-04T00:39:39.656Z,25.90
2018-11-04T00:42:07.908Z,20.00
2018-11-04T00:44:36.073Z,23.33
2018-11-04T00:47:04.261Z,23.70
2018-11-04T00:49:33.152Z,29.30
2018-11-04T00:52:01.441Z,28.70
2018-11-04T00:54:29.680Z,24.50
2018-11-04T00:56:57.894Z,21.40
2018-11-04T00:59:26.025Z,25.47
2018-11-04T01:01:54.221Z,27.77
2018-11-04T01:04:22.403Z,31.53
2018-11-04T01:06:50.601Z,23.63
2018-11-04T01:09:18.834Z,29.30
2018-11-04T01:11:46.907Z,22.97
2018-11-04T01:14:15.083Z,30.37
2018-11-04T01:16:43.213Z,25.73
2018-11-04T01:19:11.408Z,24.20
2018-11-04T01:21:39.548Z,22.57
2018-11-04T01:24:07.719Z,25.03
2018-11-04T01:26:35.920Z,27.73
2018-11-04T01:29:04.099Z,26.43
2018-11-04T01:31:32.276Z,24.63
2018-11-04T01:34:00.466Z,23.23
2018-11-04T01:36:28.663Z,25.57
2018-11-04T01:38:56.828Z,24.32
2018-11-04T01:41:25.005Z,22.00
2018-11-04T01:43:53.213Z,25.10
2018-11-04T01:46:21.409Z,27.47
2018-11-04T01:48:49.634Z,24.67
2018-11-04T01:51:17.836Z,21.00
2018-11-04T01:53:46.039Z,25.57
2018-11-04T01:56:14.214Z,31.13
2018-11-04T01:58:42.362Z,21.93
2018-11-04T02:01:10.479Z,26.93
2018-11-04T02:03:38.629Z,26.80
2018-11-04T02:06:06.780Z,27.40
2018-11-04T02:08:35.013Z,26.27
2018-11-04T02:11:03.212Z,25.23
2018-11-04T02:13:31.422Z,24.03
2018-11-04T02:15:59.589Z,24.63
2018-11-04T02:18:27.989Z,27.27
2018-11-04T02:20:56.204Z,24.13
2018-11-04T02:23:24.364Z,26.17
2018-11-04T02:25:52.504Z,28.40
2018-11-04T02:28:20.812Z,28.73
2018-11-04T02:30:49.017Z,24.23
2018-11-04T02:33:17.212Z,27.30
2018-11-04T02:35:45.405Z,22.60
2018-11-04T02:38:13.585Z,23.60
2018-11-04T02:40:41.736Z,25.77
2018-11-04T02:43:09.914Z,25.37
2018-11-04T02:45:38.121Z,25.37
2018-11-04T02:48:06.323Z,25.10
2018-11-04T02:50:34.461Z,26.70
2018-11-04T02:53:02.654Z,30.13
2018-11-04T02:55:30.802Z,23.10
2018-11-04T02:57:58.977Z,25.60
2018-11-04T03:00:27.132Z,28.70
2018-11-04T03:02:55.382Z,20.53
2018-11-04T03:05:23.545Z,23.13
2018-11-04T03:07:51.728Z,32.10
2018-11-04T03:10:19.933Z,26.20
2018-11-04T03:12:48.126Z,24.90
2018-11-04T03:15:16.390Z,22.70
2018-11-04T03:17:44.556Z,24.43
2018-11-04T03:20:12.748Z,28.10
2018-11-04T03:22:40.939Z,31.67
2018-11-04T03:25:09.109Z,27.07
2018-11-04T03:27:37.256Z,25.00
2018-11-04T03:30:06.687Z,22.87
2018-11-04T03:32:34.837Z,24.93
2018-11-04T03:35:03.114Z,25.17
2018-11-04T03:37:31.269Z,27.20
2018-11-04T03:39:59.456Z,25.97
2018-11-04T03:42:27.604Z,24.33
2018-11-04T03:44:55.804Z,29.50
2018-11-04T03:47:24.005Z,31.20
2018-11-04T03:49:52.161Z,28.50
2018-11-04T03:52:20.344Z,31.50
2018-11-04T03:54:48.512Z,24.87
2018-11-04T03:57:16.669Z,24.20
2018-11-04T03:59:44.812Z,25.33
2018-11-04T04:02:12.935Z,24.50
2018-11-04T04:04:41.127Z,25.40
2018-11-04T04:07:09.296Z,28.77
2018-11-04T04:09:37.456Z,25.40
2018-11-04T04:12:06.084Z,31.30
2018-11-04T04:14:34.270Z,24.33
2018-11-04T04:17:02.420Z,28.40
2018-11-04T04:19:30.583Z,26.40
2018-11-04T04:21:58.736Z,27.07
2018-11-04T04:24:26.899Z,25.80
2018-11-04T04:26:55.080Z,24.50
2018-11-04T04:29:23.194Z,27.40
2018-11-04T04:31:51.444Z,24.87
2018-11-04T04:34:19.608Z,25.80
2018-11-04T04:36:47.779Z,24.20
2018-11-04T04:39:15.983Z,26.30
2018-11-04T04:41:44.166Z,28.97
2018-11-04T04:44:12.336Z,25.60
2018-11-04T04:46:40.483Z,29.50
2018-11-04T04:49:08.689Z,28.07
2018-11-04T04:51:36.870Z,29.17
2018-11-04T04:54:05.552Z,29.13
2018-11-04T04:56:33.730Z,31.43
2018-11-04T04:59:02.612Z,29.43
2018-11-04T05:01:30.499Z,29.27
2018-11-04T05:03:58.675Z,31.23
2018-11-04T05:06:27.107Z,32.00
2018-11-04T05:08:55.265Z,28.97
2018-11-04T05:11:23.564Z,27.40
2018-11-04T05:13:52.280Z,29.53
2018-11-04T05:16:20.420Z,30.00
2018-11-04T05:18:48.605Z,33.60
2018-11-04T05:21:16.806Z,29.60
2018-11-04T05:23:44.981Z,32.60
2018-11-04T05:26:13.149Z,28.80
2018-11-04T05:28:41.340Z,33.93
2018-11-04T05:31:09.608Z,30.73
2018-11-04T05:33:37.877Z,29.47
2018-11-04T05:36:06.050Z,32.40
2018-11-04T05:38:34.206Z,29.30
2018-11-04T05:41:02.376Z,33.90
2018-11-04T05:43:30.511Z,26.43
2018-11-04T05:45:58.725Z,31.10
2018-11-04T05:48:26.942Z,28.67
2018-11-04T05:50:55.121Z,28.03
2018-11-04T05:53:23.269Z,29.90
2018-11-04T05:55:51.298Z,29.63
2018-11-04T05:58:19.429Z,31.53
2018-11-04T06:00:47.589Z,27.50
2018-11-04T06:03:15.725Z,29.03
2018-11-04T06:05:43.873Z,34.20
2018-11-04T06:08:12.054Z,32.80
2018-11-04T06:10:40.201Z,29.00
2018-11-04T06:13:08.346Z,32.60
2018-11-04T06:15:36.513Z,31.03
2018-11-04T06:18:04.771Z,35.00
2018-11-04T06:20:32.915Z,28.27
2018-11-04T06:23:01.082Z,33.63
2018-11-04T06:25:29.269Z,30.60
2018-11-04T06:27:57.432Z,33.37
2018-11-04T06:30:25.595Z,30.10
2018-11-04T06:32:53.756Z,33.20
2018-11-04T06:35:21.933Z,27.43
2018-11-04T06:37:50.124Z,30.20
2018-11-04T06:40:18.280Z,35.63
2018-11-04T06:42:46.442Z,28.27
2018-11-04T06:45:14.613Z,28.40
2018-11-04T06:47:42.843Z,27.57
2018-11-04T06:50:12.444Z,30.33
2018-11-04T06:52:40.910Z,31.67
2018-11-04T06:55:09.701Z,32.27
2018-11-04T06:57:37.975Z,29.60
2018-11-04T07:00:07.901Z,35.60
2018-11-04T07:02:36.008Z,30.27
2018-11-04T07:05:04.244Z,36.20
2018-11-04T07:07:32.410Z,31.50
2018-11-04T07:10:00.607Z,34.80
2018-11-04T07:12:28.957Z,35.50
2018-11-04T07:14:57.152Z,29.73
2018-11-04T07:17:25.295Z,31.07
2018-11-04T07:19:53.483Z,33.87
2018-11-04T07:22:21.610Z,26.93
2018-11-04T07:24:49.786Z,34.43
2018-11-04T07:27:17.978Z,34.90
2018-11-04T07:29:46.131Z,28.93
2018-11-04T07:32:14.415Z,32.13
2018-11-04T07:34:42.550Z,38.67
2018-11-04T07:37:10.812Z,35.87
2018-11-04T07:39:38.956Z,38.13
2018-11-04T07:42:07.152Z,38.50
2018-11-04T07:44:35.552Z,33.67
2018-11-04T07:47:03.710Z,28.17
2018-11-04T07:49:31.896Z,36.57
2018-11-04T07:52:00.136Z,32.20
2018-11-04T07:54:28.260Z,34.27
2018-11-04T07:56:56.585Z,34.83
2018-11-04T07:59:24.730Z,27.33
2018-11-04T08:01:52.861Z,36.00
2018-11-04T08:04:27.485Z,30.83
2018-11-04T08:06:55.640Z,28.30
2018-11-04T08:09:23.781Z,27.20
2018-11-04T08:11:51.937Z,28.80
2018-11-04T08:14:20.084Z,30.93
2018-11-04T08:16:48.208Z,27.77
2018-11-04T08:19:16.356Z,30.57
2018-11-04T08:21:44.520Z,32.60
2018-11-04T08:24:12.659Z,29.63
2018-11-04T08:26:40.828Z,25.27
2018-11-04T08:29:08.956Z,27.13
2018-11-04T08:31:37.100Z,24.07
2018-11-04T08:34:05.304Z,34.50
2018-11-04T08:36:33.490Z,29.87
2018-11-04T08:39:01.672Z,27.67
2018-11-04T08:41:29.802Z,30.00
2018-11-04T08:43:58.000Z,26.97
2018-11-04T08:46:26.120Z,33.07
2018-11-04T08:48:54.376Z,34.10
2018-11-04T08:51:22.507Z,27.70
2018-11-04T08:53:50.752Z,29.67
2018-11-04T08:56:18.979Z,30.47
2018-11-04T08:58:47.147Z,32.10
2018-11-04T09:01:15.307Z,32.47
2018-11-04T09:03:43.502Z,28.47
2018-11-04T09:06:11.674Z,22.40
2018-11-04T09:08:40.011Z,28.60
2018-11-04T09:11:08.176Z,26.90
2018-11-04T09:13:36.328Z,33.47
2018-11-04T09:16:04.486Z,32.40
2018-11-04T09:18:32.616Z,31.47
2018-11-04T09:21:00.846Z,31.47
2018-11-04T09:23:29.007Z,30.70
2018-11-04T09:25:57.116Z,30.60
2018-11-04T09:28:25.261Z,28.60
2018-11-04T09:30:53.376Z,29.43
2018-11-04T09:33:21.528Z,27.57
2018-11-04T09:35:49.887Z,30.30
2018-11-04T09:38:17.781Z,30.87
2018-11-04T09:40:45.891Z,28.87
2018-11-04T09:43:14.043Z,44.33
2018-11-04T09:45:42.156Z,33.50
2018-11-04T09:48:10.306Z,29.70
2018-11-04T09:50:38.423Z,28.20
2018-11-04T09:53:06.684Z,33.53
2018-11-04T09:55:34.817Z,35.17
2018-11-04T09:58:03.019Z,26.17
2018-11-04T10:00:31.166Z,31.27
2018-11-04T10:02:59.312Z,32.40
2018-11-04T10:05:27.439Z,31.23
2018-11-04T10:07:55.572Z,35.40
2018-11-04T10:10:23.707Z,30.43
2018-11-04T10:12:51.849Z,32.73
2018-11-04T10:15:20.007Z,31.53
2018-11-04T10:17:48.176Z,31.70
2018-11-04T10:20:16.711Z,31.57
2018-11-04T10:22:44.495Z,28.50
2018-11-04T10:25:13.283Z,33.00
2018-11-04T10:27:41.903Z,29.97
2018-11-04T10:30:12.768Z,65.97
2018-11-04T10:32:41.020Z,32.73
2018-11-04T10:35:09.723Z,29.87
2018-11-04T10:37:38.403Z,29.73
2018-11-04T10:40:07.247Z,32.47
2018-11-04T10:42:35.611Z,43.70
2018-11-04T10:45:04.428Z,34.00
2018-11-04T10:47:32.693Z,25.20
2018-11-04T10:50:00.888Z,33.33
2018-11-04T10:52:29.071Z,31.63
2018-11-04T10:54:57.227Z,27.10
2018-11-04T10:57:25.343Z,31.57
2018-11-04T10:59:53.475Z,37.63
2018-11-04T11:02:21.624Z,29.00
2018-11-04T11:04:49.823Z,30.80
2018-11-04T11:07:17.963Z,31.00
2018-11-04T11:09:46.113Z,32.93
2018-11-04T11:12:14.260Z,25.53
2018-11-04T11:14:42.404Z,32.73
2018-11-04T11:17:10.583Z,31.83
2018-11-04T11:19:38.715Z,26.90
2018-11-04T11:22:06.864Z,24.50
2018-11-04T11:24:35.039Z,29.70
2018-11-04T11:27:03.165Z,30.27
2018-11-04T11:29:31.331Z,32.23
2018-11-04T11:31:59.480Z,27.97
2018-11-04T11:34:27.635Z,27.50
2018-11-04T11:36:55.796Z,30.50
2018-11-04T11:39:23.937Z,24.83
2018-11-04T11:41:52.071Z,26.37
2018-11-04T11:44:20.232Z,25.50
2018-11-04T11:46:48.475Z,26.40
2018-11-04T11:49:16.604Z,27.73
2018-11-04T11:51:44.739Z,26.30
2018-11-04T11:54:12.873Z,22.07
2018-11-04T11:56:40.983Z,27.50
2018-11-04T11:59:09.139Z,29.83
2018-11-04T12:01:37.250Z,26.47
2018-11-04T12:04:13.081Z,22.80
2018-11-04T12:06:41.635Z,23.20
2018-11-04T12:09:09.838Z,22.47
2018-11-04T12:11:38.243Z,30.23
2018-11-04T12:14:06.396Z,24.53
2018-11-04T12:16:34.580Z,16.67
2018-11-04T12:19:03.919Z,21.90
2018-11-04T12:21:32.080Z,25.70
2018-11-04T12:24:00.204Z,29.73
2018-11-04T12:26:28.348Z,25.63
2018-11-04T12:28:56.454Z,25.00
2018-11-04T12:31:24.591Z,17.83
2018-11-04T12:33:52.750Z,15.20
2018-11-04T12:36:20.883Z,18.80
2018-11-04T12:38:49.066Z,20.93
2018-11-04T12:41:17.215Z,24.03
2018-11-04T12:43:45.379Z,21.27
2018-11-04T12:46:13.503Z,18.40
2018-11-04T12:48:41.733Z,18.80
2018-11-04T12:51:09.892Z,21.17
2018-11-04T12:53:38.028Z,15.10
2018-11-04T12:56:06.426Z,19.77
2018-11-04T12:58:34.580Z,20.43
2018-11-04T13:01:02.811Z,15.83
2018-11-04T13:03:30.987Z,17.03
2018-11-04T13:05:59.119Z,16.57
2018-11-04T13:08:27.256Z,17.03
2018-11-04T13:10:55.367Z,11.73
2018-11-04T13:13:23.609Z,18.20
2018-11-04T13:15:51.989Z,13.30
2018-11-04T13:18:20.147Z,17.90
2018-11-04T13:20:48.285Z,18.03
2018-11-04T13:23:16.491Z,13.07
2018-11-04T13:25:44.649Z,20.33
2018-11-04T13:28:12.852Z,15.40
2018-11-04T13:30:40.994Z,15.83
2018-11-04T13:33:09.151Z,14.00
2018-11-04T13:35:37.376Z,15.30
2018-11-04T13:38:05.764Z,16.23
2018-11-04T13:40:33.926Z,13.67
2018-11-04T13:43:02.141Z,16.30
2018-11-04T13:45:30.457Z,16.03
2018-11-04T13:47:58.601Z,16.43
2018-11-04T13:50:26.736Z,15.83
2018-11-04T13:52:54.876Z,16.90
2018-11-04T13:55:23.053Z,14.83
2018-11-04T13:57:51.279Z,15.90
2018-11-04T14:00:19.447Z,15.73
2018-11-04T14:02:48.609Z,16.43
2018-11-04T14:05:16.936Z,13.40
2018-11-04T14:07:45.138Z,19.53
2018-11-04T14:10:14.794Z,15.60
2018-11-04T14:12:43.794Z,15.27
2018-11-04T14:15:12.649Z,12.73
2018-11-04T14:17:41.037Z,11.50
2018-11-04T14:20:10.821Z,15.07
2018-11-04T14:22:39.375Z,14.20
2018-11-04T14:25:08.601Z,18.30
2018-11-04T14:27:36.963Z,14.77
2018-11-04T14:30:07.372Z,14.00
2018-11-04T14:32:35.761Z,12.03
2018-11-04T14:35:04.712Z,11.07
2018-11-04T14:37:33.071Z,12.13
2018-11-04T14:40:01.317Z,9.60
2018-11-04T14:42:29.509Z,10.77
2018-11-04T14:44:57.618Z,8.57
2018-11-04T14:47:25.868Z,12.40
2018-11-04T14:49:54.111Z,11.87
2018-11-04T14:52:22.287Z,12.70
2018-11-04T14:54:50.943Z,12.43
2018-11-04T14:57:19.224Z,11.10
2018-11-04T14:59:47.533Z,14.10
2018-11-04T15:02:15.679Z,10.37
2018-11-04T15:04:43.933Z,10.43
2018-11-04T15:07:12.110Z,13.90
2018-11-04T15:09:40.272Z,10.23
2018-11-04T15:12:08.462Z,10.43
2018-11-04T15:14:36.600Z,9.00
2018-11-04T15:17:04.760Z,10.80
2018-11-04T15:19:32.664Z,10.63
2018-11-04T15:22:00.801Z,8.10
2018-11-04T15:24:28.920Z,10.43
2018-11-04T15:26:57.052Z,11.93
2018-11-04T15:29:25.182Z,9.93
2018-11-04T15:31:53.345Z,11.70
2018-11-04T15:34:21.659Z,8.83
2018-11-04T15:36:49.670Z,9.07
2018-11-04T15:39:17.843Z,9.30
2018-11-04T15:41:45.958Z,12.03
2018-11-04T15:44:14.112Z,9.53
2018-11-04T15:46:42.235Z,8.60
2018-11-04T15:49:10.824Z,9.93
2018-11-04T15:51:39.073Z,10.50
2018-11-04T15:54:07.229Z,14.87
2018-11-04T15:56:35.419Z,10.43
2018-11-04T15:59:03.630Z,14.70
2018-11-04T16:01:32.345Z,11.10
2018-11-04T16:04:00.498Z,12.53
2018-11-04T16:06:28.584Z,13.33
2018-11-04T16:08:56.726Z,9.07
2018-11-04T16:11:24.856Z,11.27
2018-11-04T16:13:53.010Z,10.97
2018-11-04T16:16:21.127Z,9.13
2018-11-04T16:18:49.350Z,10.27
2018-11-04T16:21:17.420Z,13.93
2018-11-04T16:23:45.639Z,9.93
2018-11-04T16:26:13.771Z,10.20
2018-11-04T16:28:41.687Z,10.23
2018-11-04T16:31:09.899Z,10.17
2018-11-04T16:33:38.059Z,9.77
2018-11-04T16:36:06.271Z,10.60
2018-11-04T16:38:34.470Z,11.17
2018-11-04T16:41:02.628Z,12.13
2018-11-04T16:43:30.848Z,10.37
2018-11-04T16:45:58.935Z,12.10
2018-11-04T16:48:27.123Z,12.23
2018-11-04T16:50:55.257Z,13.73
2018-11-04T16:53:23.388Z,12.70
2018-11-04T16:55:51.639Z,11.17
2018-11-04T16:58:19.788Z,15.37
2018-11-04T17:00:47.920Z,12.93
2018-11-04T17:03:16.147Z,13.70
2018-11-04T17:05:44.443Z,13.37
2018-11-04T17:08:12.496Z,15.73
2018-11-04T17:10:40.635Z,17.20
2018-11-04T17:13:08.766Z,11.67
2018-11-04T17:15:36.929Z,12.00
2018-11-04T17:18:05.282Z,13.93
2018-11-04T17:20:33.444Z,11.77
2018-11-04T17:23:01.581Z,12.60
2018-11-04T17:25:29.719Z,12.80
2018-11-04T17:27:57.897Z,14.57
2018-11-04T17:30:26.026Z,11.03
2018-11-04T17:32:54.164Z,11.60
2018-11-04T17:35:22.390Z,11.87
2018-11-04T17:37:50.528Z,11.80
2018-11-04T17:40:18.697Z,12.17
2018-11-04T17:42:46.848Z,10.80
2018-11-04T17:45:16.280Z,13.27
2018-11-04T17:47:44.833Z,14.53
2018-11-04T17:50:20.175Z,11.80
2018-11-04T17:52:48.316Z,9.97
2018-11-04T17:55:16.644Z,14.93
2018-11-04T17:57:45.036Z,11.43
2018-11-04T18:00:14.260Z,11.63
2018-11-04T18:02:42.919Z,10.83
2018-11-04T18:05:11.787Z,10.57
2018-11-04T18:07:40.029Z,7.97
2018-11-04T18:10:08.372Z,10.00
2018-11-04T18:12:36.522Z,12.90
2018-11-04T18:15:05.496Z,9.20
2018-11-04T18:17:33.683Z,9.07
2018-11-04T18:20:01.882Z,9.07
2018-11-04T18:22:30.007Z,9.73
2018-11-04T18:24:58.137Z,10.33
2018-11-04T18:27:26.267Z,10.13
2018-11-04T18:29:54.387Z,11.57
2018-11-04T18:32:22.625Z,8.40
2018-11-04T18:34:50.769Z,11.30
2018-11-04T18:37:18.969Z,14.37
2018-11-04T18:39:47.075Z,10.40
2018-11-04T18:42:15.225Z,11.23
2018-11-04T18:44:43.397Z,10.97
2018-11-04T18:47:11.229Z,11.27
2018-11-04T18:49:39.408Z,12.43
2018-11-04T18:52:07.938Z,12.67
2018-11-04T18:54:36.065Z,15.33
2018-11-04T18:57:04.319Z,10.77
2018-11-04T18:59:32.501Z,12.17
2018-11-04T19:02:00.644Z,18.90
2018-11-04T19:04:28.825Z,17.47
2018-11-04T19:06:56.979Z,15.73
2018-11-04T19:09:25.160Z,12.70
2018-11-04T19:11:53.455Z,14.80
2018-11-04T19:14:21.501Z,16.50
2018-11-04T19:16:49.633Z,15.37
2018-11-04T19:19:17.765Z,19.10
2018-11-04T19:21:45.896Z,17.17
2018-11-04T19:24:14.027Z,15.67
2018-11-04T19:26:42.213Z,18.00
2018-11-04T19:29:10.381Z,16.27
2018-11-04T19:31:38.583Z,15.30
2018-11-04T19:34:06.802Z,14.70
2018-11-04T19:36:35.008Z,18.80
2018-11-04T19:39:03.799Z,16.83
2018-11-04T19:41:31.963Z,13.87
2018-11-04T19:44:00.099Z,13.53
2018-11-04T19:46:28.257Z,13.03
2018-11-04T19:48:56.404Z,16.33
2018-11-04T19:51:24.536Z,12.27
2018-11-04T19:53:52.672Z,10.30
2018-11-04T19:56:20.798Z,14.27
2018-11-04T19:58:48.933Z,17.23
2018-11-04T20:01:17.052Z,16.93
2018-11-04T20:03:45.225Z,19.30
2018-11-04T20:06:13.425Z,18.30
2018-11-04T20:08:46.928Z,19.03
2018-11-04T20:11:15.096Z,15.90
2018-11-04T20:13:48.661Z,12.33
2018-11-04T20:16:16.775Z,18.10
2018-11-04T20:18:50.495Z,14.70
2018-11-04T20:21:18.633Z,15.60
2018-11-04T20:23:46.791Z,11.50
2018-11-04T20:26:15.928Z,16.07
2018-11-04T20:28:44.174Z,14.47
2018-11-04T20:31:17.898Z,18.90
2018-11-04T20:36:20.684Z,13.20
2018-11-04T20:38:54.304Z,13.20
2018-11-04T20:41:30.532Z,16.13
2018-11-04T20:43:58.938Z,16.20
2018-11-04T20:46:27.070Z,13.60
2018-11-04T20:49:00.777Z,15.37
2018-11-04T20:51:29.006Z,13.23
2018-11-04T20:53:57.144Z,13.77
2018-11-04T20:56:30.651Z,14.03
2018-11-04T20:58:58.788Z,15.10
2018-11-04T21:01:26.922Z,18.77
2018-11-04T21:03:55.252Z,18.20
2018-11-04T21:06:23.233Z,11.60
2018-11-04T21:08:51.369Z,14.30
2018-11-04T21:11:19.542Z,14.47
2018-11-04T21:13:47.644Z,12.50
2018-11-04T21:16:15.936Z,15.33
2018-11-04T21:18:43.940Z,16.17
2018-11-04T21:21:12.090Z,16.07
2018-11-04T21:23:40.231Z,15.00
2018-11-04T21:26:08.360Z,14.20
2018-11-04T21:28:36.714Z,12.70
2018-11-04T21:31:04.817Z,17.43
2018-11-04T21:33:32.944Z,13.83
2018-11-04T21:36:01.066Z,13.73
2018-11-04T21:38:29.205Z,14.23
2018-11-04T21:40:57.512Z,29.93
2018-11-04T21:43:26.074Z,15.20
2018-11-04T21:45:53.856Z,14.53
2018-11-04T21:48:22.113Z,15.00
2018-11-04T21:50:50.294Z,13.27
2018-11-04T21:53:18.477Z,22.33
2018-11-04T21:55:46.945Z,12.43
2018-11-04T21:58:15.832Z,14.60
2018-11-04T22:00:43.985Z,13.27
2018-11-04T22:03:12.383Z,11.77
2018-11-04T22:05:40.464Z,16.40
2018-11-04T22:08:08.741Z,13.60
2018-11-04T22:10:37.730Z,12.67
2018-11-04T22:13:05.898Z,12.47
2018-11-04T22:15:34.108Z,14.67
2018-11-04T22:18:02.272Z,14.90
2018-11-04T22:20:30.468Z,14.83
2018-11-04T22:22:58.715Z,13.77
2018-11-04T22:25:26.932Z,15.27
2018-11-04T22:27:55.069Z,13.73
2018-11-04T22:30:23.285Z,15.00
2018-11-04T22:32:51.426Z,13.33
2018-11-04T22:35:19.403Z,12.33
2018-11-04T22:37:47.559Z,16.53
2018-11-04T22:40:15.732Z,16.73
2018-11-04T22:42:43.897Z,13.53
2018-11-04T22:45:12.718Z,12.27
2018-11-04T22:47:41.931Z,14.10
2018-11-04T22:50:12.283Z,13.80
2018-11-04T22:52:41.163Z,14.50
2018-11-04T22:55:09.404Z,14.87
2018-11-04T22:57:37.568Z,16.57
2018-11-04T23:00:07.336Z,12.60
2018-11-04T23:02:35.480Z,16.40
2018-11-04T23:05:09.083Z,17.67
2018-11-04T23:07:37.248Z,13.87
2018-11-04T23:10:05.582Z,16.00
2018-11-04T23:12:33.731Z,12.70
2018-11-04T23:15:01.882Z,13.47
2018-11-04T23:17:30.061Z,21.00
2018-11-04T23:19:58.173Z,16.20
2018-11-04T23:22:26.308Z,18.93
2018-11-04T23:24:54.441Z,16.23
2018-11-04T23:27:22.583Z,13.57
2018-11-04T23:29:50.707Z,15.30
2018-11-04T23:32:18.858Z,15.40
2018-11-04T23:34:47.026Z,15.23
2018-11-04T23:37:15.177Z,17.90
2018-11-04T23:39:43.337Z,15.23
2018-11-04T23:42:11.508Z,15.83
2018-11-04T23:44:39.835Z,14.43
2018-11-04T23:47:08.029Z,14.27
2018-11-04T23:49:36.157Z,13.67
2018-11-04T23:52:04.304Z,19.77
2018-11-04T23:54:32.456Z,14.17
2018-11-04T23:57:00.625Z,14.27
2018-11-04T23:59:28.757Z,16.50
